Time;durP1;ratioP1;P1;durP2;ratioP2;P2;SDS_P1;SDS_P2;PMS_P1;PMS_P2;Temp;Humidity;BMP_temperature;BMP_pressure;BME280_temperature;BME280_humidity;BME280_pressure;Samples;Min_cycle;Max_cycle;Signal;HPM_P1;HPM_P2
2021/12/30 00:01:07;;;;;;;10.53;9.50;;;9.80;99.90;;;;;;5057832;28;20257;-55
2021/12/30 00:03:37;;;;;;;11.03;9.93;;;9.80;99.90;;;;;;5060984;28;20226;-55
2021/12/30 00:06:06;;;;;;;12.60;11.30;;;9.80;99.90;;;;;;5078023;28;20275;-55
2021/12/30 00:08:35;;;;;;;10.50;9.13;;;9.70;99.90;;;;;;5070151;28;20726;-52
2021/12/30 00:11:04;;;;;;;11.60;9.90;;;9.70;99.90;;;;;;5071306;28;20282;-56
2021/12/30 00:13:32;;;;;;;10.20;9.20;;;9.70;99.90;;;;;;5070092;28;20227;-54
2021/12/30 00:16:00;;;;;;;10.27;9.23;;;9.70;99.90;;;;;;5072655;28;20226;-56
2021/12/30 00:18:29;;;;;;;9.53;8.63;;;9.80;99.90;;;;;;5072818;28;20209;-55
2021/12/30 00:20:58;;;;;;;9.30;8.37;;;9.70;99.90;;;;;;5072852;28;20247;-53
2021/12/30 00:23:26;;;;;;;9.47;8.57;;;9.70;99.90;;;;;;5073245;28;20206;-55
2021/12/30 00:25:55;;;;;;;8.50;7.80;;;9.70;99.90;;;;;;5069121;28;21117;-56
2021/12/30 00:28:24;;;;;;;11.23;10.03;;;9.70;99.90;;;;;;5072312;28;20646;-54
2021/12/30 00:30:53;;;;;;;12.63;9.50;;;9.70;99.90;;;;;;5062315;28;20271;-55
2021/12/30 00:33:22;;;;;;;12.60;10.40;;;9.80;99.90;;;;;;5052681;28;20252;-55
2021/12/30 00:35:52;;;;;;;10.97;9.77;;;9.70;99.90;;;;;;5052980;28;20229;-54
2021/12/30 00:38:22;;;;;;;10.00;8.80;;;9.70;99.90;;;;;;5052288;28;20211;-55
2021/12/30 00:40:51;;;;;;;9.27;8.37;;;9.70;99.90;;;;;;5052176;28;20666;-55
2021/12/30 00:43:20;;;;;;;13.33;8.80;;;9.70;99.90;;;;;;5053961;28;20257;-55
2021/12/30 00:45:48;;;;;;;9.67;8.70;;;9.70;99.90;;;;;;5070988;28;20225;-54
2021/12/30 00:48:17;;;;;;;29.70;9.20;;;9.70;99.90;;;;;;5072507;28;20821;-54
2021/12/30 00:50:46;;;;;;;15.33;10.80;;;9.60;99.90;;;;;;5072301;28;20281;-54
2021/12/30 00:53:15;;;;;;;9.33;8.43;;;9.60;99.90;;;;;;5072017;28;20215;-54
2021/12/30 00:55:45;;;;;;;10.17;9.10;;;9.50;99.90;;;;;;5072163;28;20239;-54
2021/12/30 00:58:13;;;;;;;11.00;9.80;;;9.50;99.90;;;;;;5072044;28;20203;-56
2021/12/30 01:00:44;;;;;;;10.60;9.60;;;9.50;99.90;;;;;;5054190;28;20724;-55
2021/12/30 01:03:13;;;;;;;10.93;8.50;;;9.50;99.90;;;;;;5057833;28;20201;-56
2021/12/30 01:05:42;;;;;;;9.27;8.37;;;9.50;99.90;;;;;;5072090;28;20260;-54
2021/12/30 01:08:23;;;;;;;10.77;9.33;;;9.50;99.90;;;;;;5072552;28;20201;-53
2021/12/30 01:11:07;;;;;;;9.93;9.03;;;9.60;99.90;;;;;;5072935;28;20260;-53
2021/12/30 01:13:41;;;;;;;12.60;11.30;;;9.70;99.90;;;;;;5072499;28;20289;-56
2021/12/30 01:16:16;;;;;;;14.37;12.17;;;9.70;99.90;;;;;;5071026;28;20918;-56
2021/12/30 01:19:01;;;;;;;13.33;11.47;;;9.70;99.90;;;;;;5072324;28;20220;-56
2021/12/30 01:21:32;;;;;;;20.80;14.10;;;9.60;99.90;;;;;;5071647;28;20207;-55
2021/12/30 01:24:02;;;;;;;14.13;11.17;;;9.50;99.90;;;;;;5071577;28;20205;-55
2021/12/30 01:26:31;;;;;;;13.23;11.60;;;9.50;99.90;;;;;;5053425;28;20295;-54
2021/12/30 01:29:00;;;;;;;14.10;11.00;;;9.40;99.90;;;;;;5052008;28;20205;-55
2021/12/30 01:31:29;;;;;;;15.53;11.70;;;9.50;99.90;;;;;;5052054;28;20219;-55
2021/12/30 01:34:18;;;;;;;14.53;11.37;;;9.50;99.90;;;;;;5051853;28;20309;-53
2021/12/30 01:36:46;;;;;;;16.33;11.40;;;9.50;99.90;;;;;;5068375;28;20761;-54
2021/12/30 01:39:14;;;;;;;16.57;12.40;;;9.60;99.90;;;;;;5072077;28;20216;-53
2021/12/30 01:41:44;;;;;;;13.20;11.10;;;9.60;99.90;;;;;;5071541;28;20232;-54
2021/12/30 01:44:12;;;;;;;18.30;11.07;;;9.70;99.90;;;;;;5063202;28;20206;-55
2021/12/30 01:46:43;;;;;;;14.60;11.43;;;9.70;99.90;;;;;;5050846;28;20627;-54
2021/12/30 01:49:14;;;;;;;13.60;10.80;;;9.70;99.90;;;;;;5051291;28;20190;-55
2021/12/30 01:51:43;;;;;;;13.57;10.93;;;9.70;99.90;;;;;;5051723;28;20323;-54
2021/12/30 01:54:12;;;;;;;15.43;11.07;;;9.70;99.90;;;;;;5069603;28;20203;-54
2021/12/30 01:56:40;;;;;;;12.60;10.43;;;9.70;99.90;;;;;;5070577;28;20301;-53
2021/12/30 01:59:10;;;;;;;15.07;11.17;;;9.70;99.90;;;;;;5068110;28;20206;-53
2021/12/30 02:01:45;;;;;;;15.30;10.97;;;9.80;99.90;;;;;;5051252;28;20197;-54
2021/12/30 02:04:14;;;;;;;14.77;11.20;;;9.90;99.90;;;;;;5062536;28;20258;-55
2021/12/30 02:06:42;;;;;;;16.40;10.73;;;9.80;99.90;;;;;;5071431;28;20235;-55
2021/12/30 02:09:11;;;;;;;19.03;12.33;;;9.80;99.90;;;;;;5071192;28;20673;-52
2021/12/30 02:11:39;;;;;;;17.60;12.60;;;9.80;99.90;;;;;;5070789;28;20220;-54
2021/12/30 02:14:07;;;;;;;14.43;11.07;;;9.80;99.90;;;;;;5071498;28;20200;-55
2021/12/30 02:16:40;;;;;;;18.20;10.83;;;9.80;99.90;;;;;;5070551;28;20232;-53
2021/12/30 02:19:08;;;;;;;15.80;10.00;;;9.80;99.90;;;;;;5059335;28;20210;-54
2021/12/30 02:21:38;;;;;;;19.00;10.37;;;9.90;99.90;;;;;;5051418;28;20289;-52
2021/12/30 02:24:07;;;;;;;16.33;10.10;;;9.90;99.90;;;;;;5060142;28;20209;-52
2021/12/30 02:26:35;;;;;;;15.13;9.67;;;9.90;99.90;;;;;;5051958;28;20290;-55
2021/12/30 02:29:03;;;;;;;15.53;9.03;;;9.90;99.90;;;;;;5070835;28;20618;-53
2021/12/30 02:31:32;;;;;;;15.17;8.50;;;9.80;99.90;;;;;;5071245;28;20621;-55
2021/12/30 02:34:01;;;;;;;14.70;7.90;;;9.90;99.90;;;;;;5071284;28;20231;-54
2021/12/30 02:36:32;;;;;;;14.33;7.77;;;9.90;99.90;;;;;;5069856;28;20286;-54
2021/12/30 02:39:05;;;;;;;15.23;7.80;;;9.90;99.90;;;;;;5070717;28;20224;-55
2021/12/30 02:41:35;;;;;;;16.27;8.67;;;10.00;99.90;;;;;;5070786;28;20274;-55
2021/12/30 02:44:06;;;;;;;18.17;7.97;;;9.90;99.90;;;;;;5063712;28;20248;-53
2021/12/30 02:46:37;;;;;;;20.93;8.80;;;9.90;99.90;;;;;;5050641;28;20670;-55
2021/12/30 02:49:06;;;;;;;18.50;8.50;;;9.90;99.90;;;;;;5050922;28;20239;-54
2021/12/30 02:51:34;;;;;;;21.37;8.30;;;9.90;99.90;;;;;;5050519;28;20245;-54
2021/12/30 02:54:05;;;;;;;13.87;7.80;;;10.00;99.90;;;;;;5067476;28;20262;-53
2021/12/30 02:56:33;;;;;;;23.23;9.23;;;10.00;99.90;;;;;;5070198;28;20233;-55
2021/12/30 02:59:01;;;;;;;16.70;8.80;;;10.00;99.90;;;;;;5066043;28;20241;-54
2021/12/30 03:01:31;;;;;;;17.47;8.43;;;10.10;99.90;;;;;;5070633;28;20263;-56
2021/12/30 03:04:02;;;;;;;21.17;8.60;;;10.10;99.90;;;;;;5070757;28;20303;-54
2021/12/30 03:06:31;;;;;;;19.17;7.50;;;10.00;99.90;;;;;;5069431;28;20264;-54
2021/12/30 03:09:00;;;;;;;23.27;8.87;;;10.10;99.90;;;;;;5073270;28;20212;-54
2021/12/30 03:11:30;;;;;;;16.73;8.33;;;10.10;99.90;;;;;;5074308;28;20251;-54
2021/12/30 03:14:00;;;;;;;19.67;9.00;;;10.10;99.90;;;;;;5074003;28;20262;-55
2021/12/30 03:16:32;;;;;;;20.93;8.10;;;10.10;99.90;;;;;;5074178;28;20225;-54
2021/12/30 03:19:00;;;;;;;22.70;9.23;;;10.10;99.90;;;;;;5068995;28;20287;-55
2021/12/30 03:21:29;;;;;;;20.40;8.93;;;10.10;99.90;;;;;;5054113;28;20275;-53
2021/12/30 03:24:01;;;;;;;18.70;10.10;;;10.10;99.90;;;;;;5055000;28;20236;-54
2021/12/30 03:26:31;;;;;;;21.43;10.93;;;10.20;99.90;;;;;;5055590;28;20379;-53
2021/12/30 03:29:00;;;;;;;17.57;10.07;;;10.20;99.90;;;;;;5054293;28;20202;-54
2021/12/30 03:31:28;;;;;;;21.57;11.40;;;10.20;99.90;;;;;;5053977;28;20215;-54
2021/12/30 03:33:56;;;;;;;18.20;10.40;;;10.20;99.90;;;;;;5068196;28;20234;-56
2021/12/30 03:36:25;;;;;;;19.27;11.40;;;10.20;99.90;;;;;;5073393;28;20223;-55
2021/12/30 03:38:55;;;;;;;21.63;11.43;;;10.20;99.90;;;;;;5074104;28;20260;-51
2021/12/30 03:41:25;;;;;;;24.63;11.60;;;10.20;99.90;;;;;;5073897;28;20279;-55
2021/12/30 03:43:55;;;;;;;21.83;10.73;;;10.20;99.90;;;;;;5067552;28;20545;-55
2021/12/30 03:46:23;;;;;;;18.63;11.00;;;10.20;99.90;;;;;;5053345;28;20604;-55
2021/12/30 03:48:51;;;;;;;27.77;11.77;;;10.20;99.90;;;;;;5053935;28;20254;-54
2021/12/30 03:51:23;;;;;;;23.93;10.47;;;10.10;99.90;;;;;;5053572;28;20210;-54
2021/12/30 03:53:54;;;;;;;27.43;10.00;;;10.10;99.90;;;;;;5073597;28;20227;-53
2021/12/30 03:56:27;;;;;;;20.80;9.40;;;10.10;99.90;;;;;;5072691;28;20281;-55
2021/12/30 03:58:57;;;;;;;23.03;9.13;;;10.10;99.90;;;;;;5073046;28;20238;-60
2021/12/30 04:01:27;;;;;;;22.47;9.07;;;10.10;99.90;;;;;;5073472;28;20201;-53
2021/12/30 04:03:56;;;;;;;25.27;8.40;;;10.10;99.90;;;;;;5073912;28;20307;-54
2021/12/30 04:06:25;;;;;;;22.67;8.13;;;10.10;99.90;;;;;;5072536;28;20260;-55
2021/12/30 04:08:53;;;;;;;18.73;8.07;;;10.20;99.90;;;;;;5073334;28;20349;-53
2021/12/30 04:11:25;;;;;;;24.67;8.53;;;10.20;99.90;;;;;;5073553;28;20209;-54
2021/12/30 04:13:53;;;;;;;21.97;8.50;;;10.20;99.90;;;;;;5072928;28;20267;-52
2021/12/30 04:16:23;;;;;;;24.10;8.43;;;10.20;99.90;;;;;;5074855;28;20229;-53
2021/12/30 04:18:51;;;;;;;24.47;8.53;;;10.20;99.90;;;;;;5073812;28;20628;-53
2021/12/30 04:21:20;;;;;;;22.63;8.13;;;10.20;99.90;;;;;;5073328;28;20205;-52
2021/12/30 04:23:48;;;;;;;26.73;7.60;;;10.30;99.90;;;;;;5074240;28;20223;-53
2021/12/30 04:26:17;;;;;;;21.63;7.10;;;10.20;99.90;;;;;;5068433;28;20237;-54
2021/12/30 04:28:46;;;;;;;23.17;8.53;;;10.30;99.90;;;;;;5070909;28;20243;-53
2021/12/30 04:31:15;;;;;;;26.33;8.77;;;10.30;99.90;;;;;;5052747;28;20292;-54
2021/12/30 04:33:45;;;;;;;22.60;8.03;;;10.20;99.90;;;;;;5053136;28;20229;-54
2021/12/30 04:36:14;;;;;;;24.00;7.70;;;10.20;99.90;;;;;;5052605;28;20282;-54
2021/12/30 04:38:42;;;;;;;17.57;8.00;;;10.30;99.90;;;;;;5052713;28;20209;-54
2021/12/30 04:41:10;;;;;;;21.77;8.60;;;10.20;99.90;;;;;;5052871;28;20222;-54
2021/12/30 04:43:38;;;;;;;18.40;7.30;;;10.20;99.90;;;;;;5055831;28;20203;-55
2021/12/30 04:46:06;;;;;;;21.73;8.37;;;10.20;99.90;;;;;;5072759;28;20251;-55
2021/12/30 04:48:35;;;;;;;21.27;8.03;;;10.20;99.90;;;;;;5072364;28;20939;-54
2021/12/30 04:51:04;;;;;;;22.13;7.63;;;10.30;99.90;;;;;;5071944;28;20263;-54
2021/12/30 04:53:32;;;;;;;19.93;7.73;;;10.30;99.90;;;;;;5072177;28;20783;-55
2021/12/30 04:56:01;;;;;;;20.77;7.47;;;10.30;99.90;;;;;;5072144;28;20583;-52
2021/12/30 04:58:29;;;;;;;24.13;8.00;;;10.30;99.90;;;;;;5072445;28;20204;-54
2021/12/30 05:00:57;;;;;;;21.30;7.40;;;10.30;99.90;;;;;;5051723;28;20251;-56
2021/12/30 05:03:26;;;;;;;23.77;8.20;;;10.20;99.90;;;;;;5051887;28;20744;-53
2021/12/30 05:05:55;;;;;;;20.57;8.57;;;10.20;99.90;;;;;;5052651;28;20226;-53
2021/12/30 05:08:26;;;;;;;25.50;9.07;;;10.30;99.90;;;;;;5068787;28;20208;-54
2021/12/30 05:10:54;;;;;;;20.67;8.53;;;10.30;99.90;;;;;;5072221;28;20627;-53
2021/12/30 05:13:23;;;;;;;22.13;8.40;;;10.30;99.90;;;;;;5071154;28;20776;-53
2021/12/30 05:15:51;;;;;;;24.73;9.47;;;10.30;99.90;;;;;;5071874;28;20250;-54
2021/12/30 05:18:23;;;;;;;27.37;10.37;;;10.30;99.90;;;;;;5072142;28;20214;-54
2021/12/30 05:20:51;;;;;;;26.00;8.57;;;10.40;99.90;;;;;;5071777;28;20247;-54
2021/12/30 05:23:19;;;;;;;23.43;8.67;;;10.30;99.90;;;;;;5069621;28;20298;-54
2021/12/30 05:25:49;;;;;;;23.30;8.33;;;10.30;99.90;;;;;;5067683;28;20221;-56
2021/12/30 05:28:17;;;;;;;19.17;8.47;;;10.30;99.90;;;;;;5071441;28;20753;-53
2021/12/30 05:30:45;;;;;;;18.60;8.90;;;10.30;99.90;;;;;;5071535;28;20201;-54
2021/12/30 05:33:14;;;;;;;23.83;8.17;;;10.30;99.90;;;;;;5071486;28;20312;-54
2021/12/30 05:35:42;;;;;;;23.40;8.27;;;10.30;99.90;;;;;;5071715;28;20217;-54
2021/12/30 05:38:10;;;;;;;27.77;8.60;;;10.20;99.90;;;;;;5070876;28;20665;-56
2021/12/30 05:40:38;;;;;;;24.20;7.83;;;10.20;99.90;;;;;;5076992;28;20205;-54
2021/12/30 05:43:08;;;;;;;24.13;9.17;;;10.20;99.90;;;;;;5076945;28;20591;-55
2021/12/30 05:45:41;;;;;;;24.63;7.87;;;10.10;99.90;;;;;;5050842;28;20228;-53
2021/12/30 05:48:09;;;;;;;25.37;7.57;;;10.10;99.90;;;;;;5054129;28;20213;-54
2021/12/30 05:50:38;;;;;;;26.57;9.40;;;10.00;99.90;;;;;;5071269;28;20208;-53
2021/12/30 05:53:06;;;;;;;22.67;7.83;;;10.00;99.90;;;;;;5070688;28;20205;-54
2021/12/30 05:55:34;;;;;;;26.80;8.57;;;10.00;99.90;;;;;;5070757;28;20227;-53
2021/12/30 05:58:02;;;;;;;22.13;8.37;;;10.00;99.90;;;;;;5070651;28;20251;-53
2021/12/30 06:00:33;;;;;;;30.17;9.47;;;10.00;99.90;;;;;;5071392;28;20204;-53
2021/12/30 06:03:01;;;;;;;29.97;8.83;;;10.00;99.90;;;;;;5071308;28;20300;-55
2021/12/30 06:05:29;;;;;;;21.93;7.10;;;10.00;99.90;;;;;;5070651;28;20218;-53
2021/12/30 06:07:58;;;;;;;30.47;9.57;;;10.00;99.90;;;;;;5071176;28;20231;-54
2021/12/30 06:10:26;;;;;;;29.23;7.83;;;10.10;99.90;;;;;;5071220;28;20209;-53
2021/12/30 06:12:54;;;;;;;22.23;7.93;;;10.10;99.90;;;;;;5071079;28;20206;-53
2021/12/30 06:15:22;;;;;;;21.23;7.63;;;10.00;99.90;;;;;;5070985;28;20228;-54
2021/12/30 06:17:51;;;;;;;23.00;8.57;;;10.00;99.90;;;;;;5071115;28;20201;-53
2021/12/30 06:20:19;;;;;;;19.97;9.40;;;10.10;99.90;;;;;;5070698;28;20209;-55
2021/12/30 06:22:49;;;;;;;23.50;9.63;;;10.10;99.90;;;;;;5056442;28;20670;-54
2021/12/30 06:25:17;;;;;;;28.53;13.13;;;10.10;99.90;;;;;;5063072;28;20228;-54
2021/12/30 06:27:45;;;;;;;33.40;14.23;;;10.10;99.90;;;;;;5070523;28;20202;-53
2021/12/30 06:30:14;;;;;;;21.93;13.37;;;10.10;99.90;;;;;;5070808;28;20221;-53
2021/12/30 06:32:42;;;;;;;29.97;16.33;;;10.10;99.90;;;;;;5070429;28;20212;-55
2021/12/30 06:35:12;;;;;;;22.20;9.00;;;10.10;99.90;;;;;;5070979;28;20221;-54
2021/12/30 06:37:41;;;;;;;24.13;10.50;;;10.10;99.90;;;;;;5059435;28;20664;-54
2021/12/30 06:40:12;;;;;;;45.57;28.17;;;10.10;99.90;;;;;;5051146;28;20564;-52
2021/12/30 06:42:43;;;;;;;26.80;10.10;;;10.10;99.90;;;;;;5071029;28;20244;-54
2021/12/30 06:45:12;;;;;;;18.77;7.67;;;10.10;99.90;;;;;;5066834;28;20709;-54
2021/12/30 06:47:44;;;;;;;21.03;8.07;;;10.10;99.90;;;;;;5075217;28;20243;-54
2021/12/30 06:50:14;;;;;;;19.03;8.03;;;10.10;99.90;;;;;;5074230;28;20205;-53
2021/12/30 06:52:46;;;;;;;16.90;7.37;;;10.10;99.90;;;;;;5074614;28;20557;-53
2021/12/30 06:55:14;;;;;;;15.83;6.50;;;10.10;99.90;;;;;;5074029;28;20695;-53
2021/12/30 06:57:43;;;;;;;19.93;7.30;;;10.10;99.90;;;;;;5074173;28;20204;-55
2021/12/30 07:00:12;;;;;;;12.63;6.10;;;10.10;99.90;;;;;;5060748;28;20263;-52
2021/12/30 07:02:42;;;;;;;11.40;5.87;;;10.10;99.90;;;;;;5054046;28;20205;-52
2021/12/30 07:05:13;;;;;;;14.17;6.50;;;10.20;99.90;;;;;;5068613;28;20252;-54
2021/12/30 07:07:43;;;;;;;13.27;5.87;;;10.20;99.90;;;;;;5074797;28;20583;-53
2021/12/30 07:10:12;;;;;;;13.90;5.40;;;10.20;99.90;;;;;;5073813;28;20761;-54
2021/12/30 07:12:40;;;;;;;11.47;4.63;;;10.20;99.90;;;;;;5059176;28;20627;-54
2021/12/30 07:15:09;;;;;;;10.53;5.40;;;10.30;99.90;;;;;;5055552;28;20224;-54
2021/12/30 07:17:38;;;;;;;11.83;5.40;;;10.30;99.90;;;;;;5058766;28;20202;-54
2021/12/30 07:20:07;;;;;;;13.97;6.17;;;10.30;99.90;;;;;;5064670;28;20263;-53
2021/12/30 07:22:37;;;;;;;10.73;6.57;;;10.30;99.90;;;;;;5059130;28;20248;-53
2021/12/30 07:25:16;;;;;;;10.40;6.63;;;10.30;99.90;;;;;;5085740;28;20273;-55
2021/12/30 07:27:45;;;;;;;10.90;5.90;;;10.30;99.90;;;;;;5083140;28;20205;-51
2021/12/30 07:30:14;;;;;;;8.80;4.80;;;10.40;99.90;;;;;;5073584;28;20209;-54
2021/12/30 07:32:42;;;;;;;11.87;6.30;;;10.40;99.90;;;;;;5073581;28;20914;-55
2021/12/30 07:35:10;;;;;;;13.07;6.40;;;10.40;99.90;;;;;;5059078;28;20232;-53
2021/12/30 07:37:40;;;;;;;8.77;4.80;;;10.40;99.90;;;;;;5073021;28;20662;-54
2021/12/30 07:40:09;;;;;;;5.50;4.00;;;10.40;99.90;;;;;;5073245;28;20209;-55
2021/12/30 07:42:37;;;;;;;9.17;5.40;;;10.40;99.90;;;;;;5073791;28;20205;-53
2021/12/30 07:45:09;;;;;;;11.90;7.30;;;10.40;99.90;;;;;;5067856;28;20249;-54
2021/12/30 07:47:37;;;;;;;7.00;4.40;;;10.40;99.90;;;;;;5063155;28;20608;-53
2021/12/30 07:50:06;;;;;;;5.50;4.23;;;10.50;99.90;;;;;;5053711;28;20202;-57
2021/12/30 07:52:35;;;;;;;10.07;4.57;;;10.50;99.90;;;;;;5057766;28;20209;-55
2021/12/30 07:55:05;;;;;;;6.23;4.03;;;10.50;99.90;;;;;;5064509;28;20280;-54
2021/12/30 07:57:33;;;;;;;6.23;4.00;;;10.40;99.90;;;;;;5051801;28;20237;-53
2021/12/30 08:00:02;;;;;;;12.90;9.20;;;10.50;99.90;;;;;;5055517;28;20570;-54
2021/12/30 08:02:30;;;;;;;6.00;4.90;;;10.50;99.90;;;;;;5052684;28;20205;-55
2021/12/30 08:04:58;;;;;;;10.07;4.80;;;10.50;99.90;;;;;;5051530;28;20526;-54
2021/12/30 08:07:26;;;;;;;9.93;6.07;;;10.50;99.90;;;;;;5055300;28;20544;-55
2021/12/30 08:09:55;;;;;;;5.77;4.00;;;10.50;99.90;;;;;;5061571;28;20228;-54
2021/12/30 08:12:24;;;;;;;9.07;5.43;;;10.60;99.90;;;;;;5051448;28;20233;-53
2021/12/30 08:14:52;;;;;;;10.50;5.27;;;10.60;99.90;;;;;;5050503;28;20311;-52
2021/12/30 08:17:20;;;;;;;6.33;4.10;;;10.60;99.90;;;;;;5052819;28;20247;-53
2021/12/30 08:19:48;;;;;;;6.40;4.53;;;10.60;99.90;;;;;;5068538;28;20213;-54
2021/12/30 08:22:16;;;;;;;6.67;4.80;;;10.60;99.90;;;;;;5071628;28;20250;-53
2021/12/30 08:24:45;;;;;;;7.57;4.83;;;10.60;99.90;;;;;;5069270;28;20266;-53
2021/12/30 08:27:13;;;;;;;5.97;4.87;;;10.70;99.90;;;;;;5060491;28;20659;-54
2021/12/30 08:29:44;;;;;;;6.50;4.13;;;10.70;99.90;;;;;;5053755;28;20236;-54
2021/12/30 08:32:13;;;;;;;3.90;3.40;;;10.70;99.90;;;;;;5058015;28;20275;-53
2021/12/30 08:34:41;;;;;;;6.10;3.57;;;10.80;99.90;;;;;;5061466;28;20205;-53
2021/12/30 08:37:11;;;;;;;4.10;3.20;;;10.80;99.90;;;;;;5062158;28;20200;-56
2021/12/30 08:39:40;;;;;;;6.07;4.10;;;10.80;99.90;;;;;;5052684;28;20297;-53
2021/12/30 08:42:18;;;;;;;5.47;4.27;;;10.80;99.90;;;;;;5051833;28;20202;-56
2021/12/30 08:44:50;;;;;;;4.10;3.70;;;10.90;99.90;;;;;;5051875;28;20667;-57
2021/12/30 08:47:18;;;;;;;3.80;2.90;;;10.90;99.90;;;;;;5065099;28;20205;-55
2021/12/30 08:49:47;;;;;;;3.57;2.57;;;11.00;99.90;;;;;;5052076;28;20210;-55
2021/12/30 08:52:16;;;;;;;3.83;3.40;;;11.00;99.90;;;;;;5055185;28;20205;-55
2021/12/30 08:54:47;;;;;;;3.60;2.80;;;11.10;99.90;;;;;;5061254;28;20677;-53
2021/12/30 08:57:17;;;;;;;2.73;2.30;;;11.10;99.90;;;;;;5063292;28;20272;-53
2021/12/30 08:59:45;;;;;;;2.93;2.40;;;11.10;99.90;;;;;;5061985;28;20201;-53
2021/12/30 09:02:15;;;;;;;4.10;2.13;;;11.20;99.90;;;;;;5058957;28;20262;-55
2021/12/30 09:04:46;;;;;;;2.23;2.00;;;11.20;99.90;;;;;;5060381;28;20582;-54
2021/12/30 09:07:16;;;;;;;2.30;2.10;;;11.30;99.90;;;;;;5071708;28;20291;-53
2021/12/30 09:09:45;;;;;;;4.07;2.60;;;11.30;99.90;;;;;;5070960;28;20259;-54
2021/12/30 09:12:17;;;;;;;2.90;2.20;;;11.30;99.90;;;;;;5071496;28;20193;-54
2021/12/30 09:14:49;;;;;;;2.77;2.57;;;11.40;99.90;;;;;;5072029;28;20292;-54
2021/12/30 09:17:19;;;;;;;3.87;3.50;;;11.40;99.90;;;;;;5071627;28;20221;-52
2021/12/30 09:19:47;;;;;;;3.03;2.70;;;11.50;99.90;;;;;;5072093;28;20255;-54
2021/12/30 09:22:15;;;;;;;2.90;2.60;;;11.50;99.90;;;;;;5072221;28;20644;-54
2021/12/30 09:24:44;;;;;;;4.50;3.10;;;11.50;99.90;;;;;;5073005;28;20247;-54
2021/12/30 09:27:12;;;;;;;4.33;3.60;;;11.60;99.90;;;;;;5073799;28;20266;-53
2021/12/30 09:29:40;;;;;;;4.70;2.83;;;11.60;99.90;;;;;;5069330;28;20254;-55
2021/12/30 09:32:09;;;;;;;5.60;3.87;;;11.70;99.90;;;;;;5071851;28;20204;-54
2021/12/30 09:34:39;;;;;;;5.83;3.83;;;11.70;99.90;;;;;;5071722;28;20209;-54
2021/12/30 09:37:10;;;;;;;3.63;3.23;;;11.70;99.90;;;;;;5057437;28;20270;-55
2021/12/30 09:39:40;;;;;;;5.60;4.43;;;11.80;99.90;;;;;;5071491;28;20213;-56
2021/12/30 09:42:08;;;;;;;4.53;4.10;;;11.90;99.90;;;;;;5070893;28;20618;-55
2021/12/30 09:44:37;;;;;;;4.47;3.97;;;11.90;99.90;;;;;;5071250;28;20205;-53
2021/12/30 09:47:05;;;;;;;4.87;4.33;;;11.90;99.90;;;;;;5071573;28;20204;-54
2021/12/30 09:49:34;;;;;;;5.67;4.70;;;12.00;99.90;;;;;;5071599;28;20209;-53
2021/12/30 09:52:05;;;;;;;4.03;3.50;;;12.00;99.90;;;;;;5070604;28;20209;-55
2021/12/30 09:54:33;;;;;;;5.00;4.00;;;12.10;99.90;;;;;;5051140;28;20728;-52
2021/12/30 09:57:01;;;;;;;4.20;3.40;;;12.10;99.90;;;;;;5054893;28;20225;-55
2021/12/30 09:59:31;;;;;;;3.90;3.03;;;12.10;99.90;;;;;;5063443;28;20225;-56
2021/12/30 10:01:59;;;;;;;5.30;3.60;;;12.10;99.90;;;;;;5051131;28;20232;-55
2021/12/30 10:04:30;;;;;;;4.60;3.90;;;12.10;99.90;;;;;;5050969;28;20202;-53
2021/12/30 10:07:00;;;;;;;5.60;3.60;;;12.10;99.90;;;;;;5058137;28;20599;-55
2021/12/30 10:09:50;;;;;;;8.57;4.57;;;12.20;99.90;;;;;;5071735;28;20266;-56
2021/12/30 10:12:33;;;;;;;3.77;3.20;;;12.20;99.90;;;;;;5070836;28;20205;-53
2021/12/30 10:15:02;;;;;;;3.20;2.80;;;12.20;99.90;;;;;;5071270;28;20224;-55
2021/12/30 10:17:30;;;;;;;5.83;3.63;;;12.20;99.90;;;;;;5068441;28;20224;-54
2021/12/30 10:20:17;;;;;;;3.93;3.60;;;12.20;99.90;;;;;;5050643;28;20202;-53
2021/12/30 10:22:47;;;;;;;6.50;4.93;;;12.20;99.90;;;;;;5054616;28;20201;-54
2021/12/30 10:25:32;;;;;;;4.80;3.77;;;12.20;99.90;;;;;;5065348;28;20225;-57
2021/12/30 10:28:20;;;;;;;3.10;2.80;;;12.30;99.90;;;;;;5062243;28;20201;-54
2021/12/30 10:30:49;;;;;;;2.83;2.07;;;12.30;99.90;;;;;;5070329;28;20208;-54
2021/12/30 10:33:21;;;;;;;2.63;2.37;;;12.30;99.90;;;;;;5060971;28;20635;-53
2021/12/30 10:35:49;;;;;;;2.90;2.67;;;12.40;99.90;;;;;;5057426;28;20310;-54
2021/12/30 10:38:17;;;;;;;5.90;3.40;;;12.50;99.90;;;;;;5066748;28;20623;-56
2021/12/30 10:40:50;;;;;;;5.83;3.73;;;12.50;99.90;;;;;;5070591;28;20240;-55
2021/12/30 10:43:26;;;;;;;4.10;3.63;;;12.50;99.90;;;;;;5064287;28;20205;-54
2021/12/30 10:46:22;;;;;;;4.10;3.80;;;12.50;99.90;;;;;;5058503;28;20240;-54
2021/12/30 10:49:02;;;;;;;4.33;2.90;;;12.60;99.90;;;;;;5030981;28;21207;-55
2021/12/30 10:51:37;;;;;;;3.90;2.17;;;12.60;99.90;;;;;;5090320;28;20199;-54
2021/12/30 10:54:18;;;;;;;3.63;2.00;;;12.70;99.90;;;;;;5095611;28;20202;-54
2021/12/30 10:56:54;;;;;;;4.20;1.60;;;12.70;99.90;;;;;;5094741;28;20272;-52
2021/12/30 10:59:26;;;;;;;1.10;1.00;;;12.80;99.90;;;;;;5098740;28;20249;-55
2021/12/30 11:01:57;;;;;;;2.00;1.30;;;12.90;99.90;;;;;;5099593;28;20214;-55
2021/12/30 11:04:40;;;;;;;1.53;1.40;;;13.00;99.90;;;;;;5093427;28;20227;-54
2021/12/30 11:07:10;;;;;;;1.87;1.77;;;13.10;99.90;;;;;;5090174;28;20257;-54
2021/12/30 11:09:46;;;;;;;2.20;1.30;;;13.10;99.90;;;;;;5090879;28;20625;-55
2021/12/30 11:12:16;;;;;;;1.27;1.17;;;13.10;99.90;;;;;;5090518;28;20211;-55
2021/12/30 11:14:44;;;;;;;1.10;1.10;;;13.20;99.90;;;;;;5095951;28;20204;-55
2021/12/30 11:17:16;;;;;;;1.30;1.20;;;13.30;99.90;;;;;;5107677;28;20669;-54
2021/12/30 11:19:53;;;;;;;2.00;1.00;;;13.30;99.90;;;;;;5090809;28;20712;-53
2021/12/30 11:22:22;;;;;;;1.70;0.97;;;13.40;99.90;;;;;;5100858;28;20242;-55
2021/12/30 11:24:53;;;;;;;1.70;1.10;;;13.40;99.90;;;;;;5094183;28;20212;-54
2021/12/30 11:27:23;;;;;;;1.57;1.10;;;13.40;99.90;;;;;;5104370;28;20257;-53
2021/12/30 11:29:55;;;;;;;1.33;1.00;;;13.50;99.90;;;;;;5102534;28;20203;-53
2021/12/30 11:32:25;;;;;;;1.17;1.00;;;13.50;99.90;;;;;;5102104;28;20230;-54
2021/12/30 11:34:54;;;;;;;1.30;1.10;;;13.50;99.90;;;;;;5099886;28;20250;-57
2021/12/30 11:37:24;;;;;;;1.17;1.10;;;13.60;99.90;;;;;;5101655;28;20228;-53
2021/12/30 11:39:54;;;;;;;0.83;0.83;;;13.60;99.90;;;;;;5102195;28;20265;-52
2021/12/30 11:42:27;;;;;;;0.87;0.87;;;13.60;99.90;;;;;;5104158;28;20676;-54
2021/12/30 11:44:56;;;;;;;1.03;0.90;;;13.60;99.90;;;;;;5104113;28;20661;-52
2021/12/30 11:47:39;;;;;;;1.57;1.20;;;13.60;99.90;;;;;;5103359;28;20207;-52
2021/12/30 11:50:12;;;;;;;1.20;1.20;;;13.60;99.90;;;;;;5103720;28;20667;-53
2021/12/30 11:52:56;;;;;;;1.40;1.13;;;13.60;99.90;;;;;;5104519;28;20203;-53
2021/12/30 11:55:49;;;;;;;1.67;1.30;;;13.70;99.90;;;;;;5100491;28;20223;-52
2021/12/30 11:58:42;;;;;;;1.37;1.10;;;13.70;99.90;;;;;;5093666;28;20224;-52
2021/12/30 12:01:42;;;;;;;1.00;1.00;;;13.80;99.90;;;;;;5104150;28;20668;-55
2021/12/30 12:04:15;;;;;;;1.53;1.33;;;13.80;99.90;;;;;;4999254;28;20265;-53
2021/12/30 12:06:56;;;;;;;1.33;1.10;;;13.80;99.90;;;;;;5077948;28;20220;-54
2021/12/30 12:09:37;;;;;;;2.27;1.80;;;13.80;99.90;;;;;;5101299;28;20712;-54
2021/12/30 12:12:07;;;;;;;1.60;1.50;;;13.80;99.90;;;;;;5101926;28;20269;-54
2021/12/30 12:14:41;;;;;;;2.30;1.20;;;13.80;99.90;;;;;;5107696;28;20257;-54
2021/12/30 12:17:11;;;;;;;1.30;1.20;;;13.80;99.90;;;;;;5098825;28;20767;-55
2021/12/30 12:19:43;;;;;;;1.33;1.23;;;13.90;99.90;;;;;;5106488;27;20211;-54
2021/12/30 12:22:28;;;;;;;1.70;1.07;;;13.90;99.90;;;;;;5104403;28;20206;-56
2021/12/30 12:25:16;;;;;;;2.23;0.80;;;14.00;99.90;;;;;;5092467;28;20208;-53
2021/12/30 12:27:46;;;;;;;1.27;1.13;;;14.10;99.90;;;;;;5102975;28;20276;-52
2021/12/30 12:30:29;;;;;;;1.77;1.67;;;14.10;99.90;;;;;;5101479;28;20734;-52
2021/12/30 12:32:59;;;;;;;2.00;1.20;;;14.10;99.90;;;;;;5103343;28;20204;-51
2021/12/30 12:35:31;;;;;;;1.73;0.90;;;14.00;99.90;;;;;;5094108;28;20735;-53
2021/12/30 12:38:01;;;;;;;1.20;1.10;;;13.90;99.90;;;;;;5101187;28;20684;-54
2021/12/30 12:40:36;;;;;;;1.20;1.10;;;14.00;99.90;;;;;;5101109;28;20204;-55
2021/12/30 12:43:08;;;;;;;1.63;1.20;;;14.00;99.90;;;;;;5104414;28;20228;-54
2021/12/30 12:45:41;;;;;;;0.60;0.60;;;14.00;99.90;;;;;;5101577;28;20224;-55
2021/12/30 12:48:43;;;;;;;2.20;0.80;;;14.00;99.90;;;;;;5103357;28;20239;-55
2021/12/30 12:51:25;;;;;;;1.50;0.70;;;14.00;99.90;;;;;;5094803;28;20199;-56
2021/12/30 12:54:01;;;;;;;1.60;1.50;;;13.90;99.90;;;;;;5104977;28;20204;-51
2021/12/30 12:56:36;;;;;;;1.27;1.23;;;13.90;99.90;;;;;;5102636;28;20247;-55
2021/12/30 12:59:10;;;;;;;2.03;1.80;;;13.90;99.90;;;;;;5104497;28;20263;-54